createdAt,value
2023-01-26T00:00:42.352Z,21.43
2023-01-26T00:05:46.413Z,24.40
2023-01-26T00:10:51.068Z,23.98
2023-01-26T00:15:53.617Z,24.47
2023-01-26T00:20:58.554Z,24.17
2023-01-26T00:26:01.479Z,23.67
2023-01-26T00:31:04.871Z,24.93
2023-01-26T00:36:09.758Z,24.70
2023-01-26T00:41:33.135Z,27.00
2023-01-26T00:46:35.946Z,26.20
2023-01-26T00:51:39.774Z,31.80
2023-01-26T00:56:42.293Z,27.33
2023-01-26T01:01:44.910Z,24.23
2023-01-26T01:06:48.771Z,27.40
2023-01-26T01:11:51.238Z,23.75
2023-01-26T01:16:53.903Z,20.60
2023-01-26T01:21:57.940Z,19.53
2023-01-26T01:27:00.499Z,20.93
2023-01-26T01:32:03.109Z,19.75
2023-01-26T01:37:06.955Z,23.20
2023-01-26T01:42:09.906Z,22.53
2023-01-26T01:47:19.220Z,22.98
2023-01-26T01:52:27.307Z,23.65
2023-01-26T01:57:44.834Z,25.63
2023-01-26T02:03:10.900Z,24.52
2023-01-26T02:08:16.919Z,24.17
2023-01-26T02:13:20.486Z,26.97
2023-01-26T02:18:22.970Z,28.87
2023-01-26T02:23:37.145Z,23.75
2023-01-26T02:28:42.592Z,24.75
2023-01-26T02:33:45.616Z,21.43
2023-01-26T02:38:54.808Z,23.90
2023-01-26T02:43:58.632Z,28.63
2023-01-26T02:49:18.665Z,27.97
2023-01-26T02:54:35.149Z,25.77
2023-01-26T02:59:38.939Z,24.85
2023-01-26T03:04:41.755Z,27.27
2023-01-26T03:09:44.239Z,28.20
2023-01-26T03:15:08.034Z,28.05
2023-01-26T03:20:29.462Z,26.55
2023-01-26T03:25:49.679Z,30.07
2023-01-26T03:30:56.428Z,30.60
2023-01-26T03:35:58.915Z,24.63
2023-01-26T03:41:19.205Z,28.63
2023-01-26T03:46:40.825Z,27.25
2023-01-26T03:52:01.192Z,34.83
2023-01-26T03:57:03.713Z,28.00
2023-01-26T04:02:26.689Z,31.87
2023-01-26T04:07:46.907Z,29.83
2023-01-26T04:13:07.286Z,29.27
2023-01-26T04:18:28.608Z,29.07
2023-01-26T04:23:31.067Z,30.20
2023-01-26T04:28:33.611Z,34.83
2023-01-26T04:33:37.537Z,31.77
2023-01-26T04:38:40.028Z,30.77
2023-01-26T04:43:42.525Z,32.13
2023-01-26T04:48:46.343Z,28.53
2023-01-26T04:53:49.667Z,26.73
2023-01-26T04:58:52.552Z,29.52
2023-01-26T05:03:56.409Z,31.08
2023-01-26T05:08:59.773Z,28.27
2023-01-26T05:14:02.263Z,31.02
2023-01-26T05:19:06.086Z,29.15
2023-01-26T05:24:09.374Z,27.13
2023-01-26T05:29:11.910Z,32.25
2023-01-26T05:34:15.725Z,29.27
2023-01-26T05:39:18.193Z,28.70
2023-01-26T05:44:20.654Z,30.17
2023-01-26T05:49:24.520Z,23.50
2023-01-26T05:54:27.344Z,29.40
2023-01-26T05:59:29.873Z,28.43
2023-01-26T06:04:33.710Z,26.25
2023-01-26T06:09:36.889Z,23.90
2023-01-26T06:14:39.347Z,23.73
2023-01-26T06:19:43.587Z,22.73
2023-01-26T06:24:47.110Z,28.10
2023-01-26T06:29:49.562Z,26.47
2023-01-26T06:34:54.255Z,26.53
2023-01-26T06:39:56.797Z,23.10
2023-01-26T06:44:59.587Z,24.23
2023-01-26T06:50:03.392Z,25.80
2023-01-26T06:55:06.171Z,27.95
2023-01-26T07:00:10.794Z,29.90
2023-01-26T07:05:14.817Z,29.97
2023-01-26T07:10:17.319Z,32.25
2023-01-26T07:15:19.800Z,29.45
2023-01-26T07:20:24.621Z,29.47
2023-01-26T07:25:27.408Z,32.00
2023-01-26T07:30:29.899Z,30.63
2023-01-26T07:35:33.720Z,31.30
2023-01-26T07:40:36.260Z,27.60
2023-01-26T07:45:38.879Z,24.85
2023-01-26T07:50:42.690Z,28.95
2023-01-26T07:55:45.172Z,25.20
2023-01-26T08:00:47.909Z,29.15
2023-01-26T08:05:53.670Z,25.02
2023-01-26T08:10:58.211Z,28.43
2023-01-26T08:16:05.358Z,26.87
2023-01-26T08:21:09.278Z,31.23
2023-01-26T08:26:14.574Z,29.42
2023-01-26T08:31:20.000Z,30.40
2023-01-26T08:36:24.214Z,30.83
2023-01-26T08:41:26.836Z,30.05
2023-01-26T08:46:29.315Z,35.30
2023-01-26T08:51:33.136Z,32.97
2023-01-26T08:56:36.235Z,31.08
2023-01-26T09:01:38.699Z,32.13
2023-01-26T09:06:42.509Z,32.53
2023-01-26T09:11:45.011Z,31.77
2023-01-26T09:16:47.546Z,34.58
2023-01-26T09:21:54.654Z,33.13
2023-01-26T09:26:57.131Z,35.45
2023-01-26T09:31:59.798Z,35.25
2023-01-26T09:37:03.672Z,37.53
2023-01-26T09:42:27.403Z,40.25
2023-01-26T09:47:37.883Z,37.90
2023-01-26T09:52:50.818Z,42.33
2023-01-26T09:57:58.346Z,40.23
2023-01-26T10:03:13.269Z,40.15
2023-01-26T10:08:21.142Z,44.22
2023-01-26T10:13:24.322Z,42.13
2023-01-26T10:18:30.851Z,40.90
2023-01-26T10:23:36.166Z,41.42
2023-01-26T10:28:38.711Z,44.27
2023-01-26T10:33:49.931Z,48.88
2023-01-26T10:38:53.964Z,47.60
2023-01-26T10:43:58.551Z,46.47
2023-01-26T10:49:02.957Z,49.77
2023-01-26T10:54:21.715Z,46.30
2023-01-26T10:59:28.924Z,44.90
2023-01-26T11:04:31.459Z,50.77
2023-01-26T11:15:30.258Z,47.97
2023-01-26T11:20:45.328Z,48.03
2023-01-26T11:26:04.176Z,52.57
2023-01-26T11:31:21.261Z,45.35
2023-01-26T11:36:34.474Z,46.97
2023-01-26T11:41:49.768Z,41.97
2023-01-26T11:47:10.757Z,46.88
2023-01-26T11:52:23.829Z,43.47
2023-01-26T11:57:32.355Z,37.47
2023-01-26T12:02:38.222Z,40.67
2023-01-26T12:07:54.456Z,38.00
2023-01-26T12:13:05.227Z,41.10
2023-01-26T12:18:17.589Z,38.60
2023-01-26T12:23:30.713Z,36.05
2023-01-26T12:28:38.538Z,36.30
2023-01-26T12:33:42.952Z,37.53
2023-01-26T12:39:05.520Z,40.00
2023-01-26T12:44:24.881Z,35.83
2023-01-26T12:49:33.493Z,30.70
2023-01-26T12:54:41.263Z,31.73
2023-01-26T12:59:47.673Z,31.70
2023-01-26T13:04:53.144Z,32.88
2023-01-26T13:10:30.205Z,27.47
2023-01-26T13:15:33.398Z,25.02
2023-01-26T13:20:48.407Z,26.50
2023-01-26T13:26:14.983Z,22.53
2023-01-26T13:31:33.762Z,28.80
2023-01-26T13:36:43.226Z,25.45
2023-01-26T13:41:47.444Z,28.40
2023-01-26T13:46:54.997Z,27.17
2023-01-26T13:51:59.634Z,26.02
2023-01-26T13:57:04.345Z,26.80
2023-01-26T14:02:22.055Z,30.50
2023-01-26T14:07:29.124Z,31.65
2023-01-26T14:12:34.516Z,34.08
2023-01-26T14:17:47.783Z,53.57
2023-01-26T14:23:13.650Z,36.28
2023-01-26T14:28:18.253Z,43.95
2023-01-26T14:33:22.836Z,41.10
2023-01-26T14:38:28.885Z,39.33
2023-01-26T14:43:31.406Z,42.92
2023-01-26T14:48:38.940Z,44.47
2023-01-26T14:53:50.554Z,47.73
2023-01-26T14:58:55.060Z,45.88
2023-01-26T15:04:00.956Z,42.90
2023-01-26T15:09:20.454Z,33.00
2023-01-26T15:14:33.657Z,45.38
2023-01-26T15:19:42.673Z,48.90
2023-01-26T15:24:48.555Z,53.43
2023-01-26T15:29:58.663Z,40.23
2023-01-26T15:35:07.879Z,41.70
2023-01-26T15:40:15.272Z,39.20
2023-01-26T15:45:25.123Z,46.67
2023-01-26T15:50:28.552Z,44.38
2023-01-26T15:55:34.228Z,44.63
2023-01-26T16:00:37.367Z,42.13
2023-01-26T16:05:39.858Z,44.90
2023-01-26T16:10:44.362Z,69.30
2023-01-26T16:15:48.516Z,54.30
2023-01-26T16:20:51.280Z,51.23
2023-01-26T16:25:55.966Z,71.22
2023-01-26T16:31:02.133Z,62.88
2023-01-26T16:36:05.463Z,56.40
2023-01-26T16:41:15.707Z,103.50
2023-01-26T16:46:18.187Z,115.90
2023-01-26T16:51:24.989Z,117.67
2023-01-26T16:56:28.973Z,126.97
2023-01-26T17:01:35.765Z,85.75
2023-01-26T17:06:38.328Z,90.10
2023-01-26T17:16:53.215Z,103.43
2023-01-26T17:21:55.706Z,97.20
2023-01-26T17:26:58.291Z,110.33
2023-01-26T17:32:02.178Z,103.07
2023-01-26T17:37:04.731Z,102.80
2023-01-26T17:42:07.183Z,85.13
2023-01-26T17:47:11.027Z,91.13
2023-01-26T17:52:14.341Z,99.72
2023-01-26T17:57:16.865Z,73.30
2023-01-26T18:02:20.694Z,81.47
2023-01-26T18:07:24.444Z,101.90
2023-01-26T18:12:26.951Z,130.93
2023-01-26T18:17:30.762Z,88.90
2023-01-26T18:22:33.348Z,116.15
2023-01-26T18:27:35.987Z,99.53
2023-01-26T18:32:39.859Z,87.93
2023-01-26T18:37:42.355Z,92.93
2023-01-26T18:42:44.891Z,113.43
2023-01-26T18:47:49.992Z,95.40
2023-01-26T18:52:52.664Z,90.17
2023-01-26T18:57:55.192Z,77.10
2023-01-26T19:02:59.067Z,87.80
2023-01-26T19:08:10.042Z,80.30
2023-01-26T19:13:13.043Z,101.82
2023-01-26T19:18:17.367Z,86.18
2023-01-26T19:23:19.840Z,91.80
2023-01-26T19:28:22.363Z,82.63
2023-01-26T19:33:28.011Z,89.00
2023-01-26T19:38:31.017Z,77.40
2023-01-26T19:43:33.671Z,64.07
2023-01-26T19:48:37.493Z,59.22
2023-01-26T19:53:42.085Z,41.65
2023-01-26T19:58:49.530Z,54.03
2023-01-26T20:03:54.528Z,42.60
2023-01-26T20:08:57.834Z,35.05
2023-01-26T20:14:02.431Z,44.60
2023-01-26T20:19:06.707Z,40.33
2023-01-26T20:24:13.091Z,51.63
2023-01-26T20:29:18.780Z,41.63
2023-01-26T20:34:22.643Z,47.67
2023-01-26T20:39:25.230Z,36.92
2023-01-26T20:44:27.861Z,35.70
2023-01-26T20:49:31.681Z,37.10
2023-01-26T20:54:36.005Z,35.92
2023-01-26T20:59:38.507Z,37.17
2023-01-26T21:04:42.507Z,33.17
2023-01-26T21:09:45.000Z,28.25
2023-01-26T21:14:47.500Z,33.88
2023-01-26T21:19:51.375Z,39.03
2023-01-26T21:24:53.952Z,26.57
2023-01-26T21:29:56.508Z,22.27
2023-01-26T21:35:00.347Z,21.13
2023-01-26T21:40:02.919Z,26.97
2023-01-26T21:45:24.246Z,27.02
2023-01-26T21:50:48.119Z,28.23
2023-01-26T21:55:50.633Z,29.40
2023-01-26T22:00:53.151Z,28.20
2023-01-26T22:05:57.397Z,26.58
2023-01-26T22:11:00.242Z,20.23
2023-01-26T22:16:04.576Z,20.43
2023-01-26T22:21:08.941Z,23.38
2023-01-26T22:26:14.012Z,20.92
2023-01-26T22:31:17.226Z,19.30
2023-01-26T22:36:22.031Z,21.20
2023-01-26T22:41:26.341Z,17.20
2023-01-26T22:46:30.707Z,17.97
2023-01-26T22:51:37.319Z,16.63
2023-01-26T22:56:40.084Z,15.05
2023-01-26T23:01:42.739Z,15.10
2023-01-26T23:06:46.618Z,12.30
2023-01-26T23:11:49.207Z,12.25
2023-01-26T23:16:51.883Z,13.18
2023-01-26T23:21:55.751Z,11.07
2023-01-26T23:26:58.277Z,6.90
2023-01-26T23:32:00.914Z,7.28
2023-01-26T23:37:04.759Z,6.97
2023-01-26T23:42:07.225Z,9.20
2023-01-26T23:47:09.764Z,7.38
2023-01-26T23:52:13.584Z,9.60
2023-01-26T23:57:16.067Z,9.70
